Time;durP1;ratioP1;P1;durP2;ratioP2;P2;SDS_P1;SDS_P2;PMS_P1;PMS_P2;Temp;Humidity;BMP_temperature;BMP_pressure;BME280_temperature;BME280_humidity;BME280_pressure;Samples;Min_cycle;Max_cycle;Signal;HPM_P1;HPM_P2
2022/01/11 00:00:22;;;;;;;100.50;46.53;;;2.60;99.90;;;2.61;98.72;102825.94;5074558;28;20032;-68
2022/01/11 00:02:55;;;;;;;103.93;48.93;;;2.60;99.90;;;2.64;98.89;102799.97;5073836;28;20064;-68
2022/01/11 00:05:29;;;;;;;108.57;48.37;;;2.70;99.90;;;2.81;98.35;102824.47;5074673;28;20036;-69
2022/01/11 00:07:58;;;;;;;101.27;48.20;;;2.80;99.90;;;3.00;98.18;102833.44;5074003;28;20073;-69
2022/01/11 00:10:29;;;;;;;103.77;48.87;;;3.00;99.90;;;3.01;97.52;102847.41;5074390;28;20056;-69
2022/01/11 00:13:00;;;;;;;103.83;50.57;;;3.00;99.90;;;3.18;97.61;102859.75;5074451;28;20056;-69
2022/01/11 00:15:30;;;;;;;108.53;49.40;;;3.20;99.90;;;3.24;97.05;102858.38;5073855;28;20453;-69
2022/01/11 00:18:00;;;;;;;105.43;50.03;;;3.30;99.90;;;3.44;96.59;102854.28;5072808;28;20049;-69
2022/01/11 00:20:29;;;;;;;102.80;50.67;;;3.40;99.90;;;3.62;96.67;102861.44;5072864;28;20144;-69
2022/01/11 00:25:45;;;;;;;101.93;50.37;;;3.60;99.90;;;3.67;95.34;102856.47;5061594;28;20461;-69
2022/01/11 00:28:16;;;;;;;100.43;49.63;;;3.70;99.90;;;3.79;94.81;102856.22;5073602;28;20090;-69
2022/01/11 00:31:09;;;;;;;106.90;49.73;;;3.80;99.90;;;3.88;94.56;102854.09;5072713;28;20390;-69
2022/01/11 00:33:43;;;;;;;102.20;47.60;;;3.80;99.90;;;3.93;94.05;102863.13;5073308;28;20405;-69
2022/01/11 00:36:12;;;;;;;102.63;48.27;;;3.90;99.90;;;3.85;93.98;102833.94;5072222;28;20459;-69
2022/01/11 00:38:43;;;;;;;99.55;47.80;;;3.90;99.90;;;4.01;93.20;102847.00;5073447;28;20040;-70
2022/01/11 00:41:13;;;;;;;97.63;47.05;;;4.00;99.90;;;3.39;92.82;102749.41;5072129;28;20169;-73
2022/01/11 00:43:42;;;;;;;;;;;3.90;99.90;;;3.87;93.00;102853.19;5073118;28;20099;-72
2022/01/11 00:46:12;;;;;;;98.50;45.83;;;3.90;99.90;;;3.96;92.98;102863.28;5105786;28;20297;-72
2022/01/11 00:48:42;;;;;;;94.57;45.57;;;4.00;99.90;;;3.87;93.05;102861.06;5072994;28;20132;-72
2022/01/11 00:51:11;;;;;;;98.85;46.35;;;3.90;99.90;;;3.98;92.87;102856.41;5071515;28;20504;-72
2022/01/11 00:53:41;;;;;;;99.63;48.10;;;3.90;99.90;;;3.85;92.77;102849.63;5071659;28;20049;-72
2022/01/11 00:56:09;;;;;;;99.73;48.67;;;3.90;99.90;;;3.73;92.96;102861.13;5073124;28;20052;-72
2022/01/11 00:58:38;;;;;;;97.57;47.87;;;3.80;99.90;;;3.76;92.93;102867.41;5071683;28;20083;-72
2022/01/11 01:01:06;;;;;;;102.97;49.67;;;3.80;99.90;;;3.70;93.24;102864.47;5073021;28;20064;-72
2022/01/11 01:03:36;;;;;;;102.60;48.93;;;3.70;99.90;;;3.61;93.37;102829.97;5072991;28;20052;-72
2022/01/11 01:06:06;;;;;;;96.85;45.47;;;3.70;99.90;;;3.77;93.03;102850.91;5072942;28;20048;-72
2022/01/11 01:08:35;;;;;;;;;;;3.80;99.90;;;3.81;93.00;102852.91;5071899;28;20508;-72
2022/01/11 01:11:04;;;;;;;97.20;44.90;;;3.80;99.90;;;3.91;92.95;102854.28;5105177;28;20019;-72
2022/01/11 01:13:39;;;;;;;95.33;45.97;;;3.90;99.90;;;4.02;92.16;102855.75;5071298;28;20052;-71
2022/01/11 01:16:10;;;;;;;101.37;46.97;;;4.00;99.90;;;3.98;91.94;102875.66;5071301;28;20127;-72
2022/01/11 01:19:08;;;;;;;92.57;44.83;;;3.90;99.90;;;3.99;91.28;102872.19;5068027;28;20045;-73
2022/01/11 01:21:39;;;;;;;97.10;47.00;;;4.00;99.90;;;4.04;91.03;102862.88;5070945;28;20102;-71
2022/01/11 01:24:11;;;;;;;97.90;48.70;;;4.00;99.90;;;3.98;91.72;102856.41;5071306;28;20056;-72
2022/01/11 01:26:40;;;;;;;94.80;46.70;;;3.90;99.90;;;4.04;91.49;102860.28;5072733;28;20051;-73
2022/01/11 01:29:08;;;;;;;98.97;47.07;;;4.00;99.90;;;4.05;90.88;102867.28;5071258;28;20135;-72
2022/01/11 01:31:37;;;;;;;93.17;45.83;;;4.00;99.90;;;4.09;91.42;102858.78;5072128;28;20347;-71
2022/01/11 01:34:06;;;;;;;98.97;46.63;;;4.10;99.90;;;4.18;90.83;102856.66;5072259;28;20070;-71
2022/01/11 01:36:35;;;;;;;94.57;46.27;;;4.10;99.90;;;4.21;90.47;102859.44;5072221;28;20048;-72
2022/01/11 01:39:06;;;;;;;96.53;47.87;;;4.10;99.90;;;4.18;90.69;102856.66;5070917;28;20053;-72
2022/01/11 01:41:35;;;;;;;99.73;47.80;;;4.20;99.90;;;3.99;90.55;102861.72;5072365;28;20044;-71
2022/01/11 01:44:03;;;;;;;93.27;46.67;;;4.10;99.90;;;4.02;90.57;102854.06;5070772;28;20458;-71
2022/01/11 01:46:32;;;;;;;94.90;46.80;;;4.00;99.90;;;3.98;90.92;102859.03;5070839;28;20426;-71
2022/01/11 01:49:02;;;;;;;94.00;45.57;;;4.00;99.90;;;3.88;91.47;102868.09;5072167;28;20048;-72
2022/01/11 01:51:31;;;;;;;106.03;49.37;;;3.90;99.90;;;3.85;92.40;102860.09;5070803;28;20414;-71
2022/01/11 01:54:00;;;;;;;105.03;47.03;;;3.80;99.90;;;3.71;92.30;102868.00;5071992;28;20080;-71
2022/01/11 01:56:31;;;;;;;104.37;49.13;;;3.80;99.90;;;3.82;92.40;102864.25;5070341;28;20055;-72
2022/01/11 01:58:59;;;;;;;100.67;49.47;;;3.80;99.90;;;3.87;92.57;102862.78;5070490;28;20467;-72
2022/01/11 02:01:28;;;;;;;99.60;49.77;;;3.90;99.90;;;3.77;93.08;102861.38;5070701;28;20068;-71
2022/01/11 02:03:57;;;;;;;99.63;49.67;;;3.80;99.90;;;3.77;93.30;102868.34;5071515;28;20517;-71
2022/01/11 02:06:25;;;;;;;101.83;50.00;;;3.80;99.90;;;3.62;93.31;102865.75;5071714;28;20056;-71
2022/01/11 02:08:53;;;;;;;104.73;51.47;;;3.70;99.90;;;3.83;93.42;102871.28;5070712;28;20053;-71
2022/01/11 02:11:24;;;;;;;105.07;52.20;;;3.80;99.90;;;3.58;93.51;102838.53;5070938;28;20052;-71
2022/01/11 02:13:55;;;;;;;111.33;52.27;;;3.80;99.90;;;3.73;93.80;102876.81;5070803;28;20453;-72
2022/01/11 02:16:24;;;;;;;112.78;51.33;;;3.80;99.90;;;3.70;93.64;102868.81;5071073;28;20057;-71
2022/01/11 02:18:56;;;;;;;101.27;49.93;;;3.70;99.90;;;3.72;94.20;102878.53;5071271;28;20048;-72
2022/01/11 02:21:27;;;;;;;114.13;51.57;;;3.70;99.90;;;3.75;94.26;102881.34;5070690;28;20112;-72
2022/01/11 02:24:01;;;;;;;110.00;49.20;;;3.80;99.90;;;3.61;94.28;102888.44;5070582;28;20056;-72
2022/01/11 02:26:33;;;;;;;110.30;53.93;;;3.70;99.90;;;3.66;94.68;102888.66;5070464;28;20421;-72
2022/01/11 02:29:03;;;;;;;106.10;50.83;;;3.70;99.90;;;3.69;94.89;102888.84;5071797;28;20486;-72
2022/01/11 02:31:36;;;;;;;104.03;51.33;;;3.70;99.90;;;3.65;94.70;102893.03;5070418;28;20044;-72
2022/01/11 02:34:06;;;;;;;109.97;52.00;;;3.70;99.90;;;3.37;95.24;102883.50;5070346;28;20083;-72
2022/01/11 02:36:38;;;;;;;116.57;51.60;;;3.50;99.90;;;3.30;95.58;102891.81;5071794;28;20052;-73
2022/01/11 02:39:29;;;;;;;112.57;51.47;;;3.40;99.90;;;3.37;96.43;102905.34;5071264;28;20053;-73
2022/01/11 02:42:05;;;;;;;123.83;55.73;;;3.40;99.90;;;3.49;96.27;102902.50;5070445;28;20115;-72
2022/01/11 02:44:38;;;;;;;125.00;55.67;;;3.50;99.90;;;3.50;95.99;102899.09;5070257;28;20083;-71
2022/01/11 02:47:08;;;;;;;121.07;54.22;;;3.50;99.90;;;3.42;96.67;102903.00;5070309;28;20062;-72
2022/01/11 02:49:38;;;;;;;108.32;50.50;;;3.40;99.90;;;3.39;96.64;102897.56;5070271;28;20087;-72
2022/01/11 02:52:21;;;;;;;118.40;53.00;;;3.40;99.90;;;3.51;96.60;102895.66;5069995;28;20051;-72
2022/01/11 02:55:13;;;;;;;119.60;52.73;;;3.50;99.90;;;3.42;96.65;102900.38;5070241;28;20075;-72
2022/01/11 02:57:43;;;;;;;119.93;50.77;;;3.40;99.90;;;3.33;97.09;102902.47;5070085;28;20072;-71
2022/01/11 03:00:22;;;;;;;119.00;55.00;;;3.40;99.90;;;3.37;97.09;102902.72;5069960;28;20040;-72
2022/01/11 03:02:51;;;;;;;119.77;52.50;;;3.40;99.90;;;3.45;97.06;102905.78;5070957;28;20485;-73
2022/01/11 03:05:23;;;;;;;119.20;54.10;;;3.50;99.90;;;3.64;96.98;102911.22;5069478;28;20064;-71
2022/01/11 03:07:55;;;;;;;121.32;54.03;;;3.60;99.90;;;3.48;96.21;102885.03;5072900;28;20052;-73
2022/01/11 03:10:32;;;;;;;116.10;51.13;;;3.60;99.90;;;3.74;96.18;102910.00;5074011;28;20458;-72
2022/01/11 03:13:04;;;;;;;111.83;51.93;;;3.70;99.90;;;3.70;95.88;102887.13;5073978;28;20162;-73
2022/01/11 03:15:34;;;;;;;109.53;52.03;;;3.80;99.90;;;3.92;95.45;102892.72;5073490;28;20439;-73
2022/01/11 03:18:08;;;;;;;106.10;49.87;;;3.90;99.90;;;3.81;95.06;102896.47;5073790;28;20056;-72
2022/01/11 03:20:45;;;;;;;101.17;49.57;;;3.80;99.90;;;3.88;95.01;102902.13;5073642;28;20048;-72
2022/01/11 03:23:16;;;;;;;101.00;48.63;;;3.90;99.90;;;3.79;94.58;102896.41;5073666;28;20045;-73
2022/01/11 03:25:47;;;;;;;103.17;50.20;;;3.90;99.90;;;3.70;94.88;102895.00;5073671;28;20107;-71
2022/01/11 03:28:16;;;;;;;110.20;51.67;;;3.80;99.90;;;3.65;94.85;102897.34;5073634;28;20048;-72
2022/01/11 03:30:45;;;;;;;108.47;52.37;;;3.80;99.90;;;3.65;95.05;102907.81;5073565;28;20048;-72
2022/01/11 03:33:14;;;;;;;100.80;51.13;;;3.60;99.90;;;3.63;95.39;102901.59;5073612;28;20056;-72
2022/01/11 03:35:46;;;;;;;101.23;51.00;;;3.60;99.90;;;3.43;95.44;102871.69;5073524;28;20198;-73
2022/01/11 03:38:18;;;;;;;105.15;52.58;;;3.60;99.90;;;3.67;95.11;102906.19;5073809;28;20045;-73
2022/01/11 03:40:52;;;;;;;110.43;55.03;;;3.70;99.90;;;3.60;94.68;102904.91;5073749;28;20048;-71
2022/01/11 03:43:22;;;;;;;114.27;54.50;;;3.60;99.90;;;3.30;95.67;102899.66;5074344;28;20047;-72
2022/01/11 03:45:51;;;;;;;;;;;3.40;99.90;;;3.37;96.12;102896.59;5073597;28;20053;-70
2022/01/11 03:48:22;;;;;;;108.60;51.13;;;3.30;99.90;;;3.32;96.16;102893.72;5073187;28;19991;-72
2022/01/11 03:50:54;;;;;;;109.43;52.80;;;3.30;99.90;;;3.25;96.11;102861.91;5073011;28;20486;-72
2022/01/11 03:53:50;;;;;;;117.97;56.33;;;3.40;99.90;;;3.39;95.59;102887.09;5073086;28;20053;-72
2022/01/11 03:56:22;;;;;;;118.63;54.77;;;3.40;99.90;;;3.28;95.02;102864.69;5072686;28;20445;-72
2022/01/11 03:59:07;;;;;;;120.13;55.70;;;3.40;99.90;;;3.39;95.10;102882.78;5072872;28;20457;-71
2022/01/11 04:01:38;;;;;;;130.47;59.17;;;3.50;99.90;;;3.32;95.10;102880.66;5072883;28;20049;-72
2022/01/11 04:04:10;;;;;;;120.88;57.58;;;3.40;99.90;;;3.34;95.18;102888.56;5074099;28;20530;-72
2022/01/11 04:06:39;;;;;;;132.60;59.93;;;3.40;99.90;;;3.30;95.23;102882.28;5072772;28;20460;-72
2022/01/11 04:09:11;;;;;;;124.93;58.33;;;3.30;99.90;;;3.17;95.56;102886.72;5072727;28;20124;-72
2022/01/11 04:11:40;;;;;;;126.57;60.77;;;3.30;99.90;;;3.06;95.79;102886.06;5072850;28;20052;-73
2022/01/11 04:14:09;;;;;;;124.53;61.00;;;3.10;99.90;;;2.94;96.15;102888.00;5074423;28;20049;-71
2022/01/11 04:16:37;;;;;;;144.57;60.17;;;3.00;99.90;;;2.87;96.79;102883.22;5072410;28;20056;-72
2022/01/11 04:19:08;;;;;;;133.13;58.85;;;2.90;99.90;;;2.97;96.91;102887.25;5071288;28;20044;-72
2022/01/11 04:21:37;;;;;;;122.68;59.17;;;3.00;99.90;;;3.01;96.87;102899.69;5072162;28;20048;-71
2022/01/11 04:24:07;;;;;;;124.77;57.33;;;3.00;99.90;;;2.90;97.01;102899.09;5072357;28;20052;-72
2022/01/11 04:26:37;;;;;;;124.15;57.95;;;3.00;99.90;;;2.92;97.21;102889.63;5072364;28;20512;-72
2022/01/11 04:29:07;;;;;;;124.57;58.77;;;2.90;99.90;;;2.94;97.22;102905.38;5072325;28;20070;-72
2022/01/11 04:31:36;;;;;;;124.30;59.27;;;3.00;99.90;;;2.81;97.72;102908.09;5073378;28;20079;-73
2022/01/11 04:34:11;;;;;;;122.27;57.13;;;2.90;99.90;;;2.86;97.78;102901.41;5072241;28;20163;-72
2022/01/11 04:36:40;;;;;;;116.93;57.40;;;2.90;99.90;;;2.82;97.62;102904.66;5071769;28;20048;-72
2022/01/11 04:39:13;;;;;;;112.93;58.47;;;2.90;99.90;;;2.82;97.95;102909.88;5072140;28;20490;-72
2022/01/11 04:41:43;;;;;;;116.17;58.10;;;2.80;99.90;;;2.91;98.27;102899.97;5073470;28;20056;-72
2022/01/11 04:44:12;;;;;;;114.40;59.58;;;2.90;99.90;;;2.71;98.40;102902.31;5072210;28;20143;-72
2022/01/11 04:46:42;;;;;;;116.53;60.00;;;2.80;99.90;;;2.82;98.77;102908.19;5072107;28;20064;-72
2022/01/11 04:49:10;;;;;;;113.83;56.70;;;2.80;99.90;;;2.78;98.52;102907.91;5071703;28;20080;-73
2022/01/11 04:51:38;;;;;;;111.87;56.77;;;2.80;99.90;;;2.68;98.68;102901.22;5071965;28;20052;-72
2022/01/11 04:54:07;;;;;;;107.57;53.77;;;2.70;99.90;;;2.73;98.95;102907.63;5071931;28;20056;-71
2022/01/11 04:56:37;;;;;;;103.30;53.37;;;2.70;99.90;;;2.60;99.06;102898.16;5071759;28;20076;-73
2022/01/11 04:59:07;;;;;;;109.43;53.30;;;2.70;99.90;;;2.60;99.23;102903.38;5072843;28;20064;-72
2022/01/11 05:01:37;;;;;;;111.87;55.03;;;2.60;99.90;;;2.76;99.66;102902.59;5071556;28;20062;-73
2022/01/11 05:04:05;;;;;;;112.23;53.23;;;2.70;99.90;;;2.71;98.91;102902.31;5071591;28;20060;-73
2022/01/11 05:06:34;;;;;;;106.73;55.67;;;2.70;99.90;;;2.79;99.19;102905.38;5072824;28;20491;-69
2022/01/11 05:09:04;;;;;;;101.90;50.63;;;2.80;99.90;;;2.69;98.91;102911.75;5071905;28;20056;-69
2022/01/11 05:11:32;;;;;;;102.20;55.07;;;2.80;99.90;;;2.59;99.37;102900.69;5071881;28;20513;-70
2022/01/11 05:14:00;;;;;;;104.00;51.37;;;2.70;99.90;;;2.63;99.65;102900.06;5071380;28;20052;-70
2022/01/11 05:16:46;;;;;;;95.60;51.70;;;2.70;99.90;;;2.66;99.56;102914.19;5071319;28;20055;-68
2022/01/11 05:19:14;;;;;;;98.25;51.35;;;2.70;99.90;;;2.71;99.44;102911.84;5071344;28;20083;-69
2022/01/11 05:21:45;;;;;;;97.67;50.20;;;2.70;99.90;;;2.71;99.54;102911.84;5071316;28;20102;-70
2022/01/11 05:24:15;;;;;;;100.60;50.33;;;2.70;99.90;;;2.74;99.24;102912.94;5072613;28;20504;-70
2022/01/11 05:26:46;;;;;;;88.70;47.67;;;2.80;99.90;;;2.59;99.31;102912.00;5071295;28;20390;-71
2022/01/11 05:29:15;;;;;;;84.57;48.57;;;2.70;99.90;;;2.60;99.36;102912.91;5072197;28;20405;-70
2022/01/11 05:31:43;;;;;;;91.00;50.60;;;2.60;99.90;;;2.56;99.89;102910.94;5072702;28;20044;-71
2022/01/11 05:34:13;;;;;;;89.60;50.47;;;2.60;99.90;;;2.57;99.94;102908.44;5071402;28;20117;-70
2022/01/11 05:36:42;;;;;;;80.55;46.08;;;2.60;99.90;;;2.61;100.00;102910.38;5070713;28;20155;-70
2022/01/11 05:39:11;;;;;;;81.47;46.10;;;2.60;99.90;;;2.59;99.75;102909.41;5070983;28;20063;-70
2022/01/11 05:41:39;;;;;;;83.77;47.30;;;2.60;99.90;;;2.62;99.71;102903.47;5072270;28;20036;-71
2022/01/11 05:44:08;;;;;;;78.47;46.70;;;2.70;99.90;;;2.62;99.61;102911.31;5071875;28;20512;-70
2022/01/11 05:46:36;;;;;;;79.87;44.73;;;2.60;99.90;;;2.71;99.65;102910.13;5070756;28;20048;-69
2022/01/11 05:49:05;;;;;;;75.17;44.37;;;2.70;99.90;;;2.79;99.43;102907.09;5072116;28;20051;-71
2022/01/11 05:51:35;;;;;;;79.77;45.00;;;2.70;99.90;;;2.67;99.08;102895.09;5070734;28;20144;-70
2022/01/11 05:54:04;;;;;;;75.90;44.28;;;2.80;99.90;;;2.77;98.94;102912.22;5070676;28;20156;-70
2022/01/11 05:56:32;;;;;;;79.87;44.53;;;2.80;99.90;;;2.79;98.78;102914.94;5072030;28;20044;-70
2022/01/11 05:59:02;;;;;;;72.50;42.42;;;2.80;99.90;;;2.80;98.39;102922.88;5072315;28;20053;-70
2022/01/11 06:01:31;;;;;;;71.83;42.07;;;2.80;99.90;;;2.77;98.53;102927.00;5071808;28;20048;-70
2022/01/11 06:03:59;;;;;;;67.27;42.83;;;2.80;99.90;;;2.81;98.75;102929.00;5071700;28;20406;-70
2022/01/11 06:06:28;;;;;;;76.20;42.07;;;2.80;99.90;;;2.84;98.65;102934.41;5070499;28;20075;-70
2022/01/11 06:09:02;;;;;;;73.77;42.10;;;2.80;99.90;;;2.80;98.74;102933.31;5070689;28;20074;-70
2022/01/11 06:11:32;;;;;;;74.07;43.03;;;2.90;99.90;;;2.78;98.45;102941.88;5072012;28;20040;-70
2022/01/11 06:14:01;;;;;;;78.47;41.10;;;2.80;99.90;;;2.86;98.70;102938.91;5070542;28;20060;-70
2022/01/11 06:16:29;;;;;;;69.57;41.77;;;2.90;99.90;;;2.90;98.43;102946.13;5070461;28;20040;-69
2022/01/11 06:18:58;;;;;;;72.60;40.20;;;2.90;99.90;;;2.92;97.98;102943.59;5070223;28;20048;-70
2022/01/11 06:21:32;;;;;;;66.80;41.23;;;2.90;99.90;;;2.93;97.78;102948.91;5070217;28;20048;-70
2022/01/11 06:24:03;;;;;;;68.90;39.50;;;3.00;99.90;;;2.98;97.72;102947.47;5070506;28;20139;-70
2022/01/11 06:26:31;;;;;;;71.80;41.03;;;3.00;99.90;;;3.00;97.65;102958.03;5071032;28;20049;-69
2022/01/11 06:29:01;;;;;;;69.10;39.67;;;3.00;99.90;;;2.97;97.23;102956.13;5070784;28;20087;-70
2022/01/11 06:31:33;;;;;;;;;;;3.00;99.90;;;3.21;97.04;102960.19;5070905;28;20044;-70
2022/01/11 06:34:01;;;;;;;62.83;39.57;;;3.20;99.90;;;3.35;96.27;102953.13;5071760;28;20332;-70
2022/01/11 06:36:30;;;;;;;65.90;39.83;;;3.30;99.90;;;3.33;95.83;102962.63;5070294;28;20055;-71
2022/01/11 06:38:59;;;;;;;63.40;39.53;;;3.40;99.90;;;3.31;95.22;102959.03;5070357;28;20102;-70
2022/01/11 06:41:32;;;;;;;61.50;37.80;;;3.30;99.90;;;3.45;95.33;102951.16;5072682;28;20106;-70
2022/01/11 06:44:05;;;;;;;58.67;36.93;;;3.40;99.90;;;3.36;94.84;102940.16;5074646;28;20075;-70
2022/01/11 06:46:35;;;;;;;59.57;35.53;;;3.50;99.90;;;3.49;94.27;102960.06;5074757;28;20044;-70
2022/01/11 06:49:04;;;;;;;59.23;37.03;;;3.50;99.90;;;3.63;94.00;102960.06;5074693;28;20053;-70
2022/01/11 06:51:35;;;;;;;60.00;36.23;;;3.60;99.90;;;3.80;93.71;102961.00;5073970;28;20032;-71
2022/01/11 06:54:03;;;;;;;53.73;34.47;;;3.80;99.90;;;3.86;92.97;102965.66;5075502;28;20106;-70
2022/01/11 06:56:33;;;;;;;58.17;36.73;;;3.90;99.90;;;3.88;92.82;102966.66;5074113;28;20060;-70
2022/01/11 06:59:08;;;;;;;56.47;35.63;;;3.90;99.90;;;3.92;92.45;102969.53;5074341;28;20060;-70
2022/01/11 07:01:38;;;;;;;53.57;35.00;;;3.90;99.90;;;3.82;91.70;102975.06;5074008;28;20405;-70
2022/01/11 07:04:20;;;;;;;55.33;35.73;;;3.90;99.90;;;3.64;92.13;102968.78;5073527;28;20302;-71
2022/01/11 07:06:54;;;;;;;59.67;37.23;;;3.80;99.90;;;3.61;92.44;102964.31;5073791;28;20463;-70
2022/01/11 07:09:22;;;;;;;58.30;37.03;;;3.70;99.90;;;3.55;92.63;102977.03;5075153;28;20052;-70
2022/01/11 07:11:54;;;;;;;;;;;3.70;99.90;;;3.52;92.69;102968.97;5074182;28;20084;-70
2022/01/11 07:14:22;;;;;;;53.43;33.40;;;3.60;99.90;;;3.56;92.86;102970.09;5073616;28;19928;-70
2022/01/11 07:16:51;;;;;;;56.53;35.23;;;3.60;99.90;;;3.46;93.24;102965.13;5074874;28;20051;-70
2022/01/11 07:19:21;;;;;;;53.42;34.75;;;3.50;99.90;;;3.47;93.04;102972.16;5073522;28;20127;-70
2022/01/11 07:21:52;;;;;;;53.83;34.63;;;3.50;99.90;;;3.54;92.99;102976.94;5073191;28;20059;-70
2022/01/11 07:24:23;;;;;;;54.08;33.22;;;3.60;99.90;;;3.70;92.81;102979.59;5073393;28;20062;-70
2022/01/11 07:26:53;;;;;;;52.15;35.05;;;3.70;99.90;;;3.75;92.58;102985.09;5073424;28;20053;-72
2022/01/11 07:29:24;;;;;;;52.37;34.80;;;3.70;99.90;;;3.90;92.30;102997.34;5073332;28;20048;-70
2022/01/11 07:31:53;;;;;;;56.77;34.30;;;3.90;99.90;;;3.93;91.58;102994.88;5073188;28;20055;-70
2022/01/11 07:34:23;;;;;;;53.92;33.33;;;3.90;99.90;;;4.04;91.22;102996.41;5073190;28;20139;-70
2022/01/11 07:36:52;;;;;;;45.27;31.37;;;4.00;99.90;;;4.01;90.69;103004.09;5073018;28;20409;-70
2022/01/11 07:39:20;;;;;;;50.17;31.13;;;4.10;99.90;;;3.93;90.20;103007.97;5074150;28;20106;-70
2022/01/11 07:41:50;;;;;;;47.70;32.15;;;4.00;99.90;;;3.83;90.41;103007.38;5073257;28;20151;-70
2022/01/11 07:44:51;;;;;;;47.70;32.23;;;3.90;99.90;;;3.13;90.52;102913.50;5073073;28;20059;-70
2022/01/11 07:47:20;;;;;;;45.93;30.30;;;3.70;99.90;;;3.57;91.00;103008.50;5072860;28;20083;-69
2022/01/11 07:49:49;;;;;;;48.87;31.80;;;3.60;99.90;;;3.45;91.38;102981.63;5074369;28;20040;-70
2022/01/11 07:52:18;;;;;;;46.60;29.63;;;3.60;99.90;;;3.55;91.03;103002.28;5074037;28;20402;-70
2022/01/11 07:54:48;;;;;;;52.45;31.00;;;3.60;99.90;;;3.53;91.17;103011.75;5072666;28;20086;-70
2022/01/11 07:57:20;;;;;;;48.63;30.70;;;3.50;99.90;;;3.54;91.46;103003.09;5072740;28;20103;-70
2022/01/11 07:59:50;;;;;;;52.63;29.70;;;3.50;99.90;;;3.60;91.70;103014.81;5073061;28;20051;-70
2022/01/11 08:02:31;;;;;;;49.37;29.70;;;3.60;99.90;;;3.68;91.41;103010.00;5073286;28;20374;-70
2022/01/11 08:05:01;;;;;;;49.37;29.63;;;3.70;99.90;;;3.64;91.24;103015.88;5072734;28;20048;-70
2022/01/11 08:07:29;;;;;;;49.27;29.77;;;3.70;99.90;;;3.79;91.59;103015.88;5073339;28;20446;-70
2022/01/11 08:10:11;;;;;;;48.93;28.90;;;3.80;99.90;;;3.84;90.82;103017.94;5073330;28;20109;-70
2022/01/11 08:12:40;;;;;;;44.53;27.13;;;3.90;99.90;;;3.95;90.17;103023.81;5073021;28;20358;-70
2022/01/11 08:15:10;;;;;;;50.47;29.80;;;4.00;99.90;;;4.04;89.58;103017.38;5073830;28;20044;-69
2022/01/11 08:17:39;;;;;;;45.08;29.50;;;4.10;99.90;;;4.09;88.93;103028.06;5072618;28;20048;-68
2022/01/11 08:20:09;;;;;;;47.17;28.35;;;4.10;99.90;;;3.32;88.11;102905.88;5072766;28;20072;-68
2022/01/11 08:22:40;;;;;;;45.67;27.53;;;4.10;99.90;;;3.80;88.64;103021.19;5072205;28;20052;-68
2022/01/11 08:25:10;;;;;;;43.20;28.10;;;3.90;99.90;;;3.74;89.09;103025.16;5074014;28;20055;-68
2022/01/11 08:27:40;;;;;;;46.27;27.63;;;3.80;99.90;;;3.69;88.98;103027.53;5072709;28;20140;-69
2022/01/11 08:30:12;;;;;;;44.67;28.17;;;3.80;99.90;;;3.60;89.50;103034.88;5072378;28;20052;-68
2022/01/11 08:32:44;;;;;;;43.57;26.90;;;3.70;99.90;;;3.60;89.93;103035.75;5072315;28;20060;-69
2022/01/11 08:35:13;;;;;;;40.97;27.10;;;3.60;99.90;;;3.59;89.68;103039.19;5072007;28;20037;-70
2022/01/11 08:37:42;;;;;;;47.63;28.07;;;3.60;99.90;;;3.47;90.14;103043.69;5072097;28;20045;-71
2022/01/11 08:40:13;;;;;;;46.00;28.75;;;3.60;99.90;;;3.41;90.55;103040.72;5071745;28;20079;-70
2022/01/11 08:42:44;;;;;;;43.23;26.20;;;3.50;99.90;;;3.46;90.45;103047.13;5072035;28;20502;-68
2022/01/11 08:45:14;;;;;;;47.77;26.50;;;3.50;99.90;;;3.41;90.54;103038.09;5071891;28;20461;-69
2022/01/11 08:47:46;;;;;;;46.07;27.77;;;3.50;99.90;;;3.43;90.88;103031.25;5071854;28;20060;-70
2022/01/11 08:50:15;;;;;;;45.70;27.27;;;3.50;99.90;;;3.42;90.86;103037.31;5071979;28;20143;-69
2022/01/11 08:52:46;;;;;;;42.30;26.23;;;3.50;99.90;;;3.41;91.15;103042.41;5071834;28;20064;-69
2022/01/11 08:55:21;;;;;;;46.57;26.60;;;3.50;99.90;;;3.47;91.10;103041.06;5071697;28;20566;-70
2022/01/11 08:57:51;;;;;;;;;;;3.50;99.90;;;3.52;90.81;103046.59;5072166;28;20044;-69
2022/01/11 09:00:24;;;;;;;45.30;26.43;;;3.60;99.90;;;3.43;90.97;103043.41;5071842;28;20014;-69
2022/01/11 09:02:59;;;;;;;45.90;26.97;;;3.50;99.90;;;3.57;91.02;103051.28;5071470;28;20060;-68
2022/01/11 09:05:30;;;;;;;44.97;25.10;;;3.60;99.90;;;3.54;90.89;103050.19;5070896;28;20106;-69
2022/01/11 09:08:04;;;;;;;43.63;24.93;;;3.60;99.90;;;3.66;91.04;103053.50;5072726;28;20044;-69
2022/01/11 09:10:33;;;;;;;47.57;26.03;;;3.70;99.90;;;3.74;90.12;103060.09;5071581;28;20059;-69
2022/01/11 09:13:02;;;;;;;37.90;24.67;;;3.80;99.90;;;3.87;90.00;103062.59;5071102;28;20048;-69
2022/01/11 09:15:32;;;;;;;43.27;26.07;;;3.90;99.90;;;3.98;89.34;103069.38;5071407;28;20079;-69
2022/01/11 09:18:05;;;;;;;43.63;25.43;;;4.00;99.90;;;3.40;88.63;102952.59;5071766;28;20402;-69
2022/01/11 09:20:35;;;;;;;39.40;24.13;;;4.10;99.90;;;4.25;88.58;103073.56;5071450;28;20060;-69
2022/01/11 09:23:05;;;;;;;43.58;24.30;;;4.20;99.90;;;4.39;88.14;103062.13;5071592;28;20053;-69
2022/01/11 09:25:36;;;;;;;35.80;23.33;;;4.40;99.90;;;4.47;87.37;103076.53;5071335;28;20413;-69
2022/01/11 09:28:08;;;;;;;39.50;23.33;;;4.40;99.90;;;4.57;86.64;103068.38;5071325;28;20461;-69
2022/01/11 09:30:38;;;;;;;40.53;23.53;;;4.50;99.90;;;4.68;86.08;103078.56;5070990;28;20067;-69
2022/01/11 09:33:07;;;;;;;38.58;23.63;;;4.60;99.90;;;4.96;86.51;103072.25;5071429;28;20149;-69
2022/01/11 09:35:37;;;;;;;36.85;22.50;;;4.90;99.90;;;5.40;85.70;103072.00;5071392;28;20040;-69
2022/01/11 09:38:24;;;;;;;34.33;22.23;;;5.30;99.90;;;6.01;84.50;103074.28;5071435;28;20056;-69
2022/01/11 09:40:57;;;;;;;37.38;22.00;;;5.80;99.90;;;6.36;82.37;103066.41;5072512;28;20123;-69
2022/01/11 09:43:29;;;;;;;34.13;21.90;;;6.30;99.90;;;6.68;80.27;103074.91;5072133;28;20043;-70
2022/01/11 09:46:05;;;;;;;35.40;21.00;;;6.60;99.90;;;6.70;78.50;103021.53;5071078;28;20428;-69
2022/01/11 09:48:35;;;;;;;;;;;6.90;99.90;;;7.23;76.70;103068.69;5071742;28;20417;-70
2022/01/11 09:51:05;;;;;;;36.30;20.60;;;7.20;99.90;;;7.53;75.76;103077.91;5071069;28;20350;-69
2022/01/11 09:53:35;;;;;;;29.20;19.70;;;7.40;99.90;;;7.74;74.61;103073.56;5070854;28;20056;-70
2022/01/11 09:56:10;;;;;;;30.30;19.60;;;7.70;99.90;;;8.01;72.68;103081.72;5072200;28;20098;-70
2022/01/11 09:58:41;;;;;;;31.60;19.77;;;7.90;99.90;;;8.28;71.73;103082.00;5104436;28;20439;-70
2022/01/11 10:01:30;;;;;;;29.75;18.70;;;8.20;99.90;;;8.21;70.64;103091.34;5071600;28;20048;-69
2022/01/11 10:04:11;;;;;;;30.58;19.45;;;8.20;99.90;;;8.39;70.67;103073.66;5071813;28;20079;-69
2022/01/11 10:07:15;;;;;;;32.08;20.08;;;8.30;99.90;;;8.76;69.30;103087.47;5049232;28;20049;-70
2022/01/11 10:09:48;;;;;;;31.42;18.77;;;8.60;99.90;;;8.54;68.56;103081.28;5062512;28;20226;-70
2022/01/11 10:12:22;;;;;;;30.40;18.58;;;8.50;99.90;;;8.70;68.42;103075.75;5070615;28;20453;-69
2022/01/11 10:14:53;;;;;;;27.77;17.60;;;8.70;99.90;;;8.92;67.42;103096.88;5070420;28;20076;-70
2022/01/11 10:17:27;;;;;;;29.25;18.13;;;8.80;99.90;;;9.04;66.87;103107.84;5070366;28;20186;-69
2022/01/11 10:20:09;;;;;;;29.23;17.58;;;9.00;99.90;;;9.21;66.50;103109.41;5070281;28;20040;-70
2022/01/11 10:23:13;;;;;;;29.30;19.23;;;9.10;99.90;;;9.45;65.93;103102.38;5060735;28;20354;-69
2022/01/11 10:25:49;;;;;;;31.48;18.10;;;9.30;99.90;;;9.61;65.19;103107.38;5070109;28;20083;-71
2022/01/11 10:28:34;;;;;;;26.40;18.08;;;9.50;99.90;;;9.83;64.86;103112.53;5071586;28;20041;-71
2022/01/11 10:31:05;;;;;;;32.28;18.25;;;9.70;99.90;;;9.99;64.39;103116.59;5071435;28;20444;-71
2022/01/11 10:34:04;;;;;;;28.15;18.50;;;9.80;99.90;;;10.19;63.16;103114.66;5070279;28;20118;-71